Time;durP1;ratioP1;P1;durP2;ratioP2;P2;SDS_P1;SDS_P2;PMS_P1;PMS_P2;Temp;Humidity;BMP_temperature;BMP_pressure;BME280_temperature;BME280_humidity;BME280_pressure;Samples;Min_cycle;Max_cycle;Signal;HPM_P1;HPM_P2
2023/05/19 00:01:51;;;;;;;18.00;10.80;;;;;;;30.73;26.14;100534.70;108057;1254;72581;-67
2023/05/19 00:04:18;;;;;;;23.30;10.70;;;;;;;30.85;26.14;100537.84;108116;1254;71807;-66
2023/05/19 00:06:47;;;;;;;19.00;10.40;;;;;;;31.11;25.93;100544.08;108110;1254;74969;-66
2023/05/19 00:09:14;;;;;;;20.60;11.10;;;;;;;31.14;25.88;100540.23;108066;1254;61161;-66
2023/05/19 00:11:41;;;;;;;16.90;9.70;;;;;;;31.13;25.77;100544.33;108087;1254;62400;-66
2023/05/19 00:14:08;;;;;;;15.90;10.20;;;;;;;30.92;26.05;100541.20;108100;1254;72312;-67
2023/05/19 00:16:36;;;;;;;16.80;9.50;;;;;;;30.76;26.32;100544.92;108097;1254;72762;-67
2023/05/19 00:19:04;;;;;;;18.50;9.90;;;;;;;30.85;26.24;100544.70;108071;1254;74920;-66
2023/05/19 00:21:31;;;;;;;17.30;9.60;;;;;;;30.54;26.53;100539.81;108044;1254;62293;-66
2023/05/19 00:24:00;;;;;;;14.80;9.50;;;;;;;30.61;26.54;100541.86;108078;1254;60685;-69
2023/05/19 00:26:28;;;;;;;13.20;8.60;;;;;;;30.67;26.50;100537.58;108214;1254;75136;-66
2023/05/19 00:28:58;;;;;;;15.30;9.10;;;;;;;30.65;26.46;100539.00;108220;1253;72613;-67
2023/05/19 00:31:25;;;;;;;14.20;8.60;;;;;;;30.83;26.30;100540.77;108215;1254;72576;-68
2023/05/19 00:33:54;;;;;;;15.00;7.90;;;;;;;30.96;26.19;100542.77;108217;1253;61810;-67
2023/05/19 00:36:21;;;;;;;22.40;8.90;;;;;;;31.02;26.17;100545.33;108080;1255;60500;-66
2023/05/19 00:38:49;;;;;;;16.60;8.50;;;;;;;30.49;26.75;100553.58;108145;1253;75857;-67
2023/05/19 00:41:17;;;;;;;16.60;8.80;;;;;;;30.28;27.20;100549.94;108110;1254;73180;-66
2023/05/19 00:43:44;;;;;;;18.30;8.40;;;;;;;30.05;27.43;100553.63;108164;1253;73383;-67
2023/05/19 00:46:11;;;;;;;12.00;8.30;;;;;;;29.86;27.77;100555.27;108225;1253;60466;-66
2023/05/19 00:48:38;;;;;;;11.80;7.40;;;;;;;29.33;28.57;100560.02;108056;1253;60533;-67
2023/05/19 00:51:08;;;;;;;19.50;8.40;;;;;;;29.38;28.48;100562.02;108147;1254;72578;-66
2023/05/19 00:53:35;;;;;;;15.10;7.90;;;;;;;29.37;28.50;100560.40;108048;1254;73729;-67
2023/05/19 00:56:02;;;;;;;14.60;7.90;;;;;;;29.34;28.48;100561.03;108161;1254;72547;-67
2023/05/19 00:58:29;;;;;;;14.20;7.80;;;;;;;29.47;28.46;100563.55;108087;1253;61024;-67
2023/05/19 01:01:01;;;;;;;14.50;8.20;;;;;;;29.58;28.36;100565.19;108202;1253;59152;-67
2023/05/19 01:03:30;;;;;;;13.00;8.00;;;;;;;29.81;28.21;100565.56;108122;1254;75941;-66
2023/05/19 01:06:00;;;;;;;12.50;7.60;;;;;;;29.57;28.33;100568.24;108063;1254;72773;-66
2023/05/19 01:08:28;;;;;;;9.60;7.40;;;;;;;29.86;28.22;100565.20;108111;1254;74989;-68
2023/05/19 01:10:55;;;;;;;15.90;7.80;;;;;;;30.34;27.79;100567.08;108066;1253;60303;-67
2023/05/19 01:13:22;;;;;;;14.00;7.60;;;;;;;30.19;27.96;100572.36;108050;1253;60332;-66
2023/05/19 01:16:06;;;;;;;17.40;8.10;;;;;;;30.33;27.75;100574.14;108119;1254;73158;-65
2023/05/19 01:19:00;;;;;;;15.00;7.40;;;;;;;30.26;27.80;100574.83;108046;1253;69742;-66
2023/05/19 01:21:59;;;;;;;14.90;7.70;;;;;;;30.36;28.17;100578.59;107738;1254;75171;-67
2023/05/19 01:24:56;;;;;;;13.60;7.40;;;;;;;30.46;28.27;100581.42;108046;1254;61003;-67
2023/05/19 01:27:41;;;;;;;13.20;7.40;;;;;;;30.51;28.69;100586.46;107764;1254;62317;-67
2023/05/19 01:30:40;;;;;;;13.60;7.40;;;;;;;30.36;29.01;100593.62;108033;1254;76095;-66
2023/05/19 01:33:10;;;;;;;12.00;6.60;;;;;;;30.29;29.42;100591.01;108037;1254;70856;-66
2023/05/19 01:35:38;;;;;;;18.10;7.40;;;;;;;30.32;29.59;100593.75;108010;1257;73542;-67
2023/05/19 01:38:07;;;;;;;11.90;6.40;;;;;;;30.12;29.85;100591.65;107935;1254;62888;-68
2023/05/19 01:40:34;;;;;;;12.90;7.10;;;;;;;30.02;29.98;100589.29;107958;1254;61322;-66
2023/05/19 01:43:01;;;;;;;14.80;6.70;;;;;;;29.90;30.52;100587.23;107944;1254;76527;-68
2023/05/19 01:45:28;;;;;;;10.00;6.80;;;;;;;30.04;30.47;100587.69;107912;1254;71520;-67
2023/05/19 01:48:02;;;;;;;18.00;7.10;;;;;;;30.22;30.55;100591.37;108060;1254;75089;-66
2023/05/19 01:50:30;;;;;;;16.00;7.30;;;;;;;30.25;31.19;100589.23;108044;1254;63885;-68
2023/05/19 01:52:58;;;;;;;13.90;7.00;;;;;;;30.42;30.96;100591.66;108104;1254;62142;-69
2023/05/19 01:55:26;;;;;;;14.40;7.20;;;;;;;30.34;30.97;100590.88;107922;1254;75462;-67
2023/05/19 01:58:04;;;;;;;9.60;6.90;;;;;;;30.05;31.45;100594.95;108068;1254;70694;-68
2023/05/19 02:00:43;;;;;;;12.00;7.20;;;;;;;30.23;31.34;100596.77;108048;1255;74912;-68
2023/05/19 02:03:45;;;;;;;14.10;6.70;;;;;;;30.40;31.40;100600.27;108034;1254;64916;-67
2023/05/19 02:06:39;;;;;;;13.80;7.00;;;;;;;30.24;31.54;100599.20;108070;1254;60737;-65
2023/05/19 02:09:15;;;;;;;16.30;7.40;;;;;;;30.24;31.73;100594.83;108040;1254;73855;-67
2023/05/19 02:11:59;;;;;;;17.20;6.60;;;;;;;30.28;31.36;100593.64;108110;1254;70946;-67
2023/05/19 02:14:29;;;;;;;12.50;6.70;;;;;;;30.07;31.58;100597.66;107974;1253;74690;-67
2023/05/19 02:16:57;;;;;;;18.90;6.40;;;;;;;29.80;32.18;100602.61;108085;1257;63903;-66
2023/05/19 02:19:24;;;;;;;12.30;6.80;;;;;;;29.95;31.92;100601.48;108004;1254;60549;-66
2023/05/19 02:21:54;;;;;;;14.10;7.10;;;;;;;30.57;31.04;100604.14;108066;1254;75272;-67
2023/05/19 02:24:21;;;;;;;12.70;7.30;;;;;;;30.60;30.73;100604.74;108077;1254;72161;-66
2023/05/19 02:26:50;;;;;;;10.60;6.40;;;;;;;30.32;31.31;100601.73;108051;1254;72840;-64
2023/05/19 02:29:18;;;;;;;15.00;7.10;;;;;;;30.39;31.26;100604.73;108086;1254;64482;-68
2023/05/19 02:31:45;;;;;;;12.30;7.40;;;;;;;30.42;31.38;100607.54;108055;1254;61873;-65
2023/05/19 02:34:12;;;;;;;19.60;7.30;;;;;;;30.43;31.25;100610.14;108067;1254;76090;-66
2023/05/19 02:36:41;;;;;;;11.10;7.50;;;;;;;30.19;31.68;100612.55;108127;1253;72699;-67
2023/05/19 02:39:09;;;;;;;12.70;7.70;;;;;;;30.01;31.78;100618.21;107905;1257;73755;-66
2023/05/19 02:41:37;;;;;;;14.10;7.80;;;;;;;30.08;32.03;100621.02;108107;1253;64618;-66
2023/05/19 02:44:04;;;;;;;15.50;7.50;;;;;;;30.21;31.62;100625.96;108111;1254;60441;-68
2023/05/19 02:46:31;;;;;;;11.20;7.30;;;;;;;30.28;31.56;100624.98;108093;1253;74876;-66
2023/05/19 02:48:58;;;;;;;14.50;7.50;;;;;;;30.16;31.98;100630.08;108093;1254;72107;-67
2023/05/19 02:51:26;;;;;;;13.10;7.50;;;;;;;30.14;31.86;100630.88;108104;1254;74721;-67
2023/05/19 02:53:53;;;;;;;10.00;7.00;;;;;;;30.18;31.95;100632.79;108106;1253;64239;-65
2023/05/19 02:56:20;;;;;;;13.70;7.40;;;;;;;30.06;32.14;100636.70;108070;1254;62263;-66
2023/05/19 02:58:47;;;;;;;12.30;6.90;;;;;;;30.27;31.72;100634.83;108078;1254;74531;-66
2023/05/19 03:01:15;;;;;;;15.50;7.10;;;;;;;30.24;31.74;100638.39;107976;1254;71367;-68
2023/05/19 03:03:42;;;;;;;11.90;7.00;;;;;;;30.62;31.45;100635.39;108165;1254;74672;-66
2023/05/19 03:06:10;;;;;;;15.10;7.50;;;;;;;30.61;31.41;100637.91;108184;1253;62939;-67
2023/05/19 03:08:37;;;;;;;13.40;7.10;;;;;;;30.34;32.00;100639.90;108256;1253;61342;-69
2023/05/19 03:11:07;;;;;;;14.90;6.90;;;;;;;30.03;32.35;100638.79;108097;1252;75847;-68
2023/05/19 03:13:35;;;;;;;9.70;7.10;;;;;;;29.98;32.57;100638.29;108161;1253;71155;-67
2023/05/19 03:16:02;;;;;;;11.60;7.30;;;;;;;30.21;31.88;100638.90;108024;1254;72554;-67
2023/05/19 03:18:29;;;;;;;10.70;6.60;;;;;;;29.99;32.11;100638.04;108122;1254;62816;-68
2023/05/19 03:20:57;;;;;;;13.90;6.40;;;;;;;30.45;31.87;100642.98;108150;1253;61307;-65
2023/05/19 03:23:25;;;;;;;12.70;7.00;;;;;;;30.46;31.54;100646.14;108126;1252;72078;-66
2023/05/19 03:25:54;;;;;;;10.80;6.80;;;;;;;30.29;31.83;100645.92;108142;1254;72054;-69
2023/05/19 03:28:22;;;;;;;14.40;6.90;;;;;;;30.15;32.08;100645.66;108097;1252;74974;-66
2023/05/19 03:30:49;;;;;;;17.20;7.20;;;;;;;30.09;32.13;100645.53;108145;1253;64237;-68
2023/05/19 03:33:20;;;;;;;10.80;6.20;;;;;;;29.96;32.34;100644.66;108133;1253;61969;-67
2023/05/19 03:35:48;;;;;;;10.90;6.40;;;;;;;30.43;31.72;100645.91;108118;1253;74668;-67
2023/05/19 03:38:15;;;;;;;14.10;6.00;;;;;;;30.50;31.49;100645.48;108093;1253;72157;-66
2023/05/19 03:40:48;;;;;;;12.50;6.50;;;;;;;30.39;31.64;100648.54;108183;1252;74103;-67
2023/05/19 03:43:16;;;;;;;13.30;6.40;;;;;;;30.50;31.41;100646.60;108093;1252;63039;-68
2023/05/19 03:45:46;;;;;;;11.20;6.60;;;;;;;30.46;31.32;100642.46;108135;1253;62451;-67
2023/05/19 03:48:51;;;;;;;14.70;6.50;;;;;;;29.88;32.28;100647.30;107647;1262;75909;-67
2023/05/19 03:51:38;;;;;;;12.20;6.60;;;;;;;29.97;32.00;100645.64;107589;1257;71750;-67
2023/05/19 03:54:21;;;;;;;13.80;6.40;;;;;;;30.44;31.14;100648.96;107833;1253;74772;-66
2023/05/19 03:56:50;;;;;;;12.20;5.80;;;;;;;30.54;31.17;100650.84;108002;1253;64680;-66
2023/05/19 03:59:17;;;;;;;12.70;6.30;;;;;;;30.74;30.87;100651.35;108161;1253;61864;-67
2023/05/19 04:01:43;;;;;;;15.30;6.00;;;;;;;30.67;30.89;100654.13;108296;1253;74548;-66
2023/05/19 04:04:14;;;;;;;;;;;;;;;30.47;31.22;100654.35;108130;1256;71889;-66
2023/05/19 04:06:41;;;;;;;11.80;6.60;;;;;;;30.39;31.52;100658.02;108110;1254;74550;-65
2023/05/19 04:09:12;;;;;;;13.30;6.80;;;;;;;30.45;31.46;100663.33;108106;1254;62393;-67
2023/05/19 04:11:40;;;;;;;13.40;6.10;;;;;;;30.56;31.28;100658.74;108164;1253;62577;-67
2023/05/19 04:14:09;;;;;;;15.20;6.70;;;;;;;30.53;31.12;100658.56;108078;1254;76487;-64
2023/05/19 04:16:35;;;;;;;11.10;6.60;;;;;;;30.43;31.63;100661.33;108108;1252;72309;-69
2023/05/19 04:19:02;;;;;;;14.60;6.50;;;;;;;30.24;31.77;100660.89;108080;1254;74812;-67
2023/05/19 04:21:29;;;;;;;12.70;6.50;;;;;;;30.40;31.80;100662.18;108137;1254;63207;-67
2023/05/19 04:23:58;;;;;;;12.30;6.20;;;;;;;30.38;31.54;100665.35;108042;1253;61149;-66
2023/05/19 04:26:25;;;;;;;14.80;6.40;;;;;;;30.22;31.72;100670.52;108023;1254;73910;-68
2023/05/19 04:28:55;;;;;;;13.20;6.30;;;;;;;30.19;31.98;100670.55;107787;1253;70464;-67
2023/05/19 04:31:22;;;;;;;11.50;5.70;;;;;;;30.41;31.49;100675.67;107898;1257;73696;-68
2023/05/19 04:33:52;;;;;;;9.70;5.60;;;;;;;30.24;31.86;100679.72;107888;1257;63616;-68
2023/05/19 04:36:20;;;;;;;11.30;6.10;;;;;;;29.89;32.59;100685.59;108064;1254;62594;-67
2023/05/19 04:38:53;;;;;;;10.10;5.70;;;;;;;30.03;32.34;100686.20;107928;1254;75043;-67
2023/05/19 04:41:21;;;;;;;12.00;6.20;;;;;;;30.34;31.89;100683.52;108066;1254;72787;-69
2023/05/19 04:43:48;;;;;;;13.00;6.20;;;;;;;30.22;32.14;100683.95;107862;1254;73731;-67
2023/05/19 04:46:17;;;;;;;11.60;6.20;;;;;;;30.36;31.90;100682.98;108038;1258;64371;-67
2023/05/19 04:48:44;;;;;;;14.00;5.90;;;;;;;30.49;31.76;100679.64;108071;1254;61213;-69
2023/05/19 04:51:12;;;;;;;9.50;6.30;;;;;;;30.47;31.53;100676.27;107932;1254;75879;-67
2023/05/19 04:53:41;;;;;;;14.40;6.30;;;;;;;30.47;31.49;100672.08;108014;1254;71163;-68
2023/05/19 04:56:09;;;;;;;11.80;6.00;;;;;;;30.86;31.08;100674.91;107968;1254;72804;-68
2023/05/19 04:58:36;;;;;;;16.10;6.50;;;;;;;30.89;30.69;100675.64;108086;1254;61883;-67
2023/05/19 05:01:08;;;;;;;9.70;6.00;;;;;;;30.96;30.66;100677.58;108078;1254;62299;-67
2023/05/19 05:03:38;;;;;;;18.90;5.80;;;;;;;30.90;30.76;100680.13;107967;1253;74866;-68
2023/05/19 05:06:06;;;;;;;21.40;6.00;;;;;;;30.99;30.64;100678.91;108067;1254;72245;-67
2023/05/19 05:08:32;;;;;;;13.80;7.00;;;;;;;30.81;30.97;100684.77;107976;1253;71632;-67
2023/05/19 05:11:00;;;;;;;17.50;6.70;;;;;;;30.90;30.82;100682.81;108082;1258;63944;-68
2023/05/19 05:13:27;;;;;;;14.20;6.60;;;;;;;31.23;30.41;100689.92;107936;1254;62323;-67
2023/05/19 05:15:55;;;;;;;19.30;6.60;;;;;;;31.57;29.89;100688.69;107906;1254;75679;-68
2023/05/19 05:18:25;;;;;;;22.10;6.20;;;;;;;31.33;30.13;100689.20;107861;1254;71477;-68
2023/05/19 05:20:53;;;;;;;18.00;6.80;;;;;;;31.22;30.56;100691.11;108006;1254;75052;-68
2023/05/19 05:23:23;;;;;;;19.60;6.60;;;;;;;31.04;30.59;100693.61;108034;1254;60765;-67
2023/05/19 05:25:51;;;;;;;15.20;6.90;;;;;;;31.22;30.55;100694.04;107984;1254;63208;-66
2023/05/19 05:28:18;;;;;;;18.60;6.40;;;;;;;31.28;30.38;100696.73;107883;1254;74410;-68
2023/05/19 05:30:46;;;;;;;25.60;6.80;;;;;;;31.12;30.49;100699.19;107993;1254;69766;-66
2023/05/19 05:33:13;;;;;;;14.50;6.70;;;;;;;31.46;30.17;100701.77;107901;1254;73668;-67
2023/05/19 05:35:40;;;;;;;18.20;6.60;;;;;;;31.56;30.01;100706.58;107874;1254;63208;-68
2023/05/19 05:38:10;;;;;;;18.80;6.70;;;;;;;31.69;29.80;100708.42;107989;1254;62367;-67
2023/05/19 05:40:37;;;;;;;21.40;6.90;;;;;;;31.87;29.63;100716.89;107955;1254;75789;-67
2023/05/19 05:43:04;;;;;;;19.20;6.90;;;;;;;31.76;29.68;100714.25;108005;1254;69202;-67
2023/05/19 05:45:33;;;;;;;16.80;6.90;;;;;;;31.57;29.96;100717.41;108010;1256;72755;-68
2023/05/19 05:48:01;;;;;;;14.20;6.30;;;;;;;31.50;29.91;100721.86;107849;1254;63617;-68
2023/05/19 05:50:29;;;;;;;14.90;7.10;;;;;;;31.38;30.07;100725.00;107884;1254;60314;-67
2023/05/19 05:52:57;;;;;;;13.80;6.20;;;;;;;31.52;30.06;100726.31;107985;1254;73647;-68
2023/05/19 05:55:24;;;;;;;14.80;6.30;;;;;;;31.72;29.73;100726.88;107784;1254;72586;-68
2023/05/19 05:57:51;;;;;;;11.40;6.10;;;;;;;31.96;29.42;100731.46;107761;1254;212097;-67
2023/05/19 06:02:01;;;;;;;16.30;7.30;;;;;;;27.79;35.19;100738.52;104956;1290;601570;-67
2023/05/19 06:04:29;;;;;;;13.10;6.50;;;;;;;29.61;32.67;100735.14;107328;1264;62592;-70
2023/05/19 06:06:59;;;;;;;11.30;6.60;;;;;;;30.11;31.97;100735.16;107357;1264;60289;-68
2023/05/19 06:09:29;;;;;;;16.00;6.30;;;;;;;30.78;31.19;100732.53;107396;1264;71921;-67
2023/05/19 06:11:58;;;;;;;16.10;6.30;;;;;;;31.21;30.40;100734.98;107336;1264;72464;-68
2023/05/19 06:14:26;;;;;;;14.10;6.80;;;;;;;31.32;30.21;100733.51;107389;1264;74657;-68
2023/05/19 06:17:11;;;;;;;9.30;5.80;;;;;;;31.65;29.98;100737.53;107267;1262;60117;-69
2023/05/19 06:19:38;;;;;;;14.10;6.30;;;;;;;31.84;29.54;100740.54;107412;1264;59246;-68
2023/05/19 06:22:05;;;;;;;13.40;5.80;;;;;;;31.80;29.59;100738.13;107414;1263;74238;-69
2023/05/19 06:24:32;;;;;;;15.60;6.30;;;;;;;32.00;29.29;100739.02;107456;1262;68542;-69
2023/05/19 06:26:59;;;;;;;12.60;6.00;;;;;;;32.18;28.97;100743.10;107447;1263;72657;-69
2023/05/19 06:29:26;;;;;;;12.00;6.60;;;;;;;32.18;28.88;100741.84;107424;1264;62676;-69
2023/05/19 06:31:54;;;;;;;10.10;6.00;;;;;;;32.23;28.70;100743.27;107412;1262;62417;-69
2023/05/19 06:34:22;;;;;;;12.70;6.10;;;;;;;32.44;28.68;100740.70;108314;1251;75412;-69
2023/05/19 06:36:48;;;;;;;17.90;6.80;;;;;;;32.72;28.43;100744.25;108133;1254;72718;-67
2023/05/19 06:39:17;;;;;;;16.30;7.00;;;;;;;32.99;28.25;100743.55;108199;1257;74716;-67
2023/05/19 06:41:44;;;;;;;7.40;5.60;;;;;;;33.22;28.04;100745.07;108096;1251;61681;-68
2023/05/19 06:44:21;;;;;;;13.80;6.50;;;;;;;33.35;27.75;100744.04;108106;1257;60491;-67
2023/05/19 06:46:48;;;;;;;17.00;5.60;;;;;;;33.36;27.35;100741.45;108126;1257;74751;-68
2023/05/19 06:49:15;;;;;;;11.00;5.40;;;;;;;33.49;27.48;100742.09;108127;1258;72347;-66
2023/05/19 06:51:43;;;;;;;8.00;5.70;;;;;;;33.54;27.06;100742.52;108164;1251;75326;-67
2023/05/19 06:54:11;;;;;;;7.10;5.60;;;;;;;33.44;27.10;100743.81;108140;1251;60946;-68
2023/05/19 06:56:40;;;;;;;6.80;5.10;;;;;;;33.83;26.91;100743.78;108136;1251;62141;-68
2023/05/19 06:59:07;;;;;;;10.30;5.80;;;;;;;33.99;26.35;100745.73;108208;1251;65436;-68
2023/05/19 07:01:35;;;;;;;13.80;5.80;;;;;;;34.04;26.41;100747.53;108232;1251;63758;-68
2023/05/19 07:04:02;;;;;;;10.60;6.00;;;;;;;34.27;26.15;100749.36;108244;1251;65205;-67
2023/05/19 07:06:30;;;;;;;13.50;6.00;;;;;;;34.15;26.19;100750.13;108275;1252;60170;-67
2023/05/19 07:08:57;;;;;;;11.10;5.60;;;;;;;34.37;26.20;100750.66;108135;1256;59498;-68
2023/05/19 07:11:25;;;;;;;9.30;5.80;;;;;;;34.35;25.87;100750.98;108198;1253;64993;-69
2023/05/19 07:13:54;;;;;;;10.80;5.60;;;;;;;34.55;25.56;100751.73;108204;1254;63818;-67
2023/05/19 07:16:25;;;;;;;9.70;5.60;;;;;;;34.70;25.57;100753.88;108079;1257;65723;-68
2023/05/19 07:18:52;;;;;;;11.60;5.40;;;;;;;34.82;24.94;100752.22;108046;1254;59649;-71
2023/05/19 07:21:19;;;;;;;9.20;5.30;;;;;;;34.83;25.19;100751.35;108200;1254;60286;-67
2023/05/19 07:23:47;;;;;;;11.90;5.50;;;;;;;35.29;25.00;100753.16;108095;1253;66234;-67
2023/05/19 07:26:14;;;;;;;7.30;4.60;;;;;;;35.71;24.24;100758.65;108045;1253;62567;-68
2023/05/19 07:28:42;;;;;;;12.60;5.50;;;;;;;35.82;24.00;100762.95;107790;1254;66872;-68
2023/05/19 07:31:09;;;;;;;11.40;5.10;;;;;;;36.05;23.86;100762.23;107954;1254;59083;-67
2023/05/19 07:33:35;;;;;;;12.10;5.30;;;;;;;36.22;23.73;100767.45;107946;1254;59498;-66
2023/05/19 07:36:03;;;;;;;16.50;6.30;;;;;;;36.29;23.83;100760.50;107958;1254;65244;-68
2023/05/19 07:38:33;;;;;;;9.30;5.10;;;;;;;36.41;23.44;100764.41;107923;1254;63584;-68
2023/05/19 07:41:01;;;;;;;9.50;5.00;;;;;;;36.37;23.33;100762.42;108073;1254;66219;-68
2023/05/19 07:43:27;;;;;;;10.30;4.90;;;;;;;36.31;23.45;100762.85;107987;1257;59562;-67
2023/05/19 07:45:55;;;;;;;12.00;5.10;;;;;;;36.39;23.23;100764.16;108002;1254;59634;-67
2023/05/19 07:48:24;;;;;;;10.40;5.20;;;;;;;36.60;23.12;100768.68;107936;1254;65370;-69
2023/05/19 07:50:51;;;;;;;11.60;5.20;;;;;;;36.79;23.16;100770.83;107930;1254;63583;-69
2023/05/19 07:53:18;;;;;;;12.50;5.00;;;;;;;36.60;23.20;100765.02;107954;1254;65104;-67
2023/05/19 07:55:45;;;;;;;12.60;5.10;;;;;;;36.60;22.97;100764.68;108054;1254;60181;-69
2023/05/19 07:58:12;;;;;;;9.90;5.40;;;;;;;36.74;23.07;100763.61;108009;1254;59769;-67
2023/05/19 08:00:41;;;;;;;8.80;4.80;;;;;;;37.05;22.85;100763.84;108015;1254;66465;-67
2023/05/19 08:03:08;;;;;;;13.30;4.90;;;;;;;37.11;22.82;100764.97;107960;1259;63643;-68
2023/05/19 08:05:36;;;;;;;12.40;5.10;;;;;;;37.27;22.75;100767.75;107962;1254;66160;-66
2023/05/19 08:08:03;;;;;;;16.60;4.90;;;;;;;37.20;22.76;100766.55;108120;1254;59647;-70
2023/05/19 08:10:30;;;;;;;10.50;5.20;;;;;;;37.26;22.61;100765.26;108014;1254;59525;-69
2023/05/19 08:12:57;;;;;;;7.70;5.00;;;;;;;37.02;22.84;100766.63;107968;1254;66376;-67
2023/05/19 08:15:24;;;;;;;10.70;5.60;;;;;;;37.08;22.57;100767.98;107999;1253;63835;-68
2023/05/19 08:17:52;;;;;;;9.70;5.10;;;;;;;36.93;22.76;100768.84;107958;1254;64819;-70
2023/05/19 08:20:21;;;;;;;8.90;4.80;;;;;;;37.09;22.67;100768.23;108014;1254;59601;-68
2023/05/19 08:22:50;;;;;;;13.20;5.10;;;;;;;37.22;22.30;100773.52;107973;1254;59563;-68
2023/05/19 08:25:18;;;;;;;12.90;5.50;;;;;;;37.28;22.14;100776.28;108052;1253;66401;-68
2023/05/19 08:27:45;;;;;;;9.30;4.70;;;;;;;37.24;21.74;100777.05;107965;1254;64023;-67
2023/05/19 08:30:12;;;;;;;10.70;4.90;;;;;;;37.70;21.22;100772.55;107986;1255;65783;-69
2023/05/19 08:32:39;;;;;;;8.80;4.40;;;;;;;38.36;20.97;100776.65;107872;1254;59654;-69
2023/05/19 08:35:07;;;;;;;19.20;5.10;;;;;;;38.64;20.45;100772.73;107967;1254;59546;-69
2023/05/19 08:37:35;;;;;;;8.60;5.20;;;;;;;38.89;20.20;100772.89;107924;1254;66455;-70
2023/05/19 08:40:04;;;;;;;9.20;4.90;;;;;;;38.91;19.98;100770.23;107990;1254;63586;-70
2023/05/19 08:42:32;;;;;;;13.50;4.70;;;;;;;38.94;20.02;100770.34;108074;1259;66260;-69
2023/05/19 08:45:00;;;;;;;8.60;5.00;;;;;;;39.13;19.80;100772.08;108019;1254;59653;-70
2023/05/19 08:47:28;;;;;;;10.00;5.40;;;;;;;39.05;19.70;100772.33;107937;1254;59534;-68
2023/05/19 08:50:01;;;;;;;9.20;4.80;;;;;;;38.85;19.53;100771.65;107641;1254;63296;-70
2023/05/19 08:52:51;;;;;;;15.60;4.70;;;;;;;38.91;19.43;100772.48;108045;1254;63755;-70
2023/05/19 08:55:26;;;;;;;6.60;5.10;;;;;;;38.89;19.31;100771.15;107852;1254;66319;-69
2023/05/19 08:57:53;;;;;;;11.70;4.80;;;;;;;38.91;19.33;100766.51;108071;1254;59646;-69
2023/05/19 09:00:21;;;;;;;12.80;5.10;;;;;;;38.89;19.44;100773.09;108003;1254;59342;-69
2023/05/19 09:02:49;;;;;;;9.10;5.10;;;;;;;38.86;19.47;100771.38;108119;1253;66243;-69
2023/05/19 09:05:32;;;;;;;9.60;5.10;;;;;;;38.86;19.58;100767.61;107994;1254;62476;-69
2023/05/19 09:08:01;;;;;;;9.70;5.10;;;;;;;39.02;19.26;100769.02;107959;1254;66096;-69
2023/05/19 09:10:30;;;;;;;8.00;5.60;;;;;;;39.06;19.05;100773.82;108117;1254;59581;-69
2023/05/19 09:12:57;;;;;;;9.90;5.10;;;;;;;38.94;19.04;100776.34;108144;1253;60341;-69
2023/05/19 09:15:26;;;;;;;12.10;5.70;;;;;;;38.50;19.43;100773.75;108071;1254;66420;-68
2023/05/19 09:18:09;;;;;;;17.00;5.70;;;;;;;38.38;19.85;100772.74;108085;1254;63906;-69
2023/05/19 09:20:41;;;;;;;11.80;6.00;;;;;;;38.31;20.14;100770.98;108032;1254;65193;-69
2023/05/19 09:23:15;;;;;;;12.30;6.30;;;;;;;38.78;20.06;100767.35;108073;1259;59747;-68
2023/05/19 09:25:49;;;;;;;11.30;6.50;;;;;;;39.00;19.78;100768.75;108106;1253;59629;-68
2023/05/19 09:28:26;;;;;;;11.40;6.50;;;;;;;39.12;20.15;100771.20;108088;1254;65454;-67
2023/05/19 09:30:58;;;;;;;19.30;6.40;;;;;;;39.52;19.90;100769.65;107991;1254;62716;-69
2023/05/19 09:33:26;;;;;;;17.20;6.80;;;;;;;39.47;20.02;100763.91;108109;1256;65000;-66
2023/05/19 09:35:56;;;;;;;13.20;7.60;;;;;;;39.13;20.14;100765.00;108125;1257;59109;-69
2023/05/19 09:38:37;;;;;;;13.10;6.60;;;;;;;39.44;20.00;100766.75;108075;1253;59103;-68
2023/05/19 09:41:04;;;;;;;12.30;6.90;;;;;;;39.70;19.98;100762.84;108127;1253;65258;-69
2023/05/19 09:43:32;;;;;;;11.30;6.80;;;;;;;39.80;19.74;100758.89;108189;1254;63795;-68
2023/05/19 09:46:03;;;;;;;17.50;7.20;;;;;;;39.91;19.84;100757.41;108103;1254;66167;-68
2023/05/19 09:48:29;;;;;;;12.90;6.80;;;;;;;39.86;19.79;100755.23;108192;1254;59669;-69
2023/05/19 09:50:56;;;;;;;11.20;7.50;;;;;;;39.99;19.59;100757.17;108088;1254;59558;-69
2023/05/19 09:53:24;;;;;;;12.80;7.90;;;;;;;40.07;19.96;100758.39;108090;1254;65163;-68
2023/05/19 09:55:56;;;;;;;15.20;9.00;;;;;;;40.39;20.15;100755.33;108097;1254;62541;-70
2023/05/19 09:58:25;;;;;;;17.30;9.60;;;;;;;40.76;20.13;100762.41;108059;1255;66009;-68
2023/05/19 10:00:53;;;;;;;20.30;10.10;;;;;;;40.97;19.77;100757.08;108075;1254;59552;-68
2023/05/19 10:03:22;;;;;;;16.80;9.30;;;;;;;40.76;20.02;100757.50;108052;1254;59508;-69
2023/05/19 10:05:49;;;;;;;14.00;8.40;;;;;;;40.96;19.54;100759.48;108101;1254;66596;-68
2023/05/19 10:08:16;;;;;;;15.60;8.10;;;;;;;41.34;19.18;100752.73;108077;1259;62651;-69
2023/05/19 10:10:45;;;;;;;15.70;7.60;;;;;;;41.52;18.58;100751.33;108094;1254;66158;-69
2023/05/19 10:13:12;;;;;;;17.70;7.00;;;;;;;41.25;18.18;100752.88;108129;1253;60277;-70
2023/05/19 10:15:41;;;;;;;17.40;7.60;;;;;;;40.97;18.21;100750.16;108048;1253;60250;-70
2023/05/19 10:18:25;;;;;;;17.80;7.00;;;;;;;40.91;18.22;100748.02;108128;1259;67688;-68
2023/05/19 10:20:51;;;;;;;12.30;6.70;;;;;;;41.49;17.96;100739.73;108048;1254;62396;-69
2023/05/19 10:23:18;;;;;;;12.10;6.10;;;;;;;41.56;17.93;100743.27;108030;1254;66192;-69
2023/05/19 10:25:45;;;;;;;16.40;5.20;;;;;;;41.10;17.82;100744.37;108179;1253;60527;-69
2023/05/19 10:28:13;;;;;;;13.50;4.60;;;;;;;40.69;18.02;100744.73;108095;1251;60311;-69
2023/05/19 10:30:43;;;;;;;13.30;5.40;;;;;;;40.75;17.80;100746.47;108333;1251;67165;-69
2023/05/19 10:33:11;;;;;;;11.50;4.80;;;;;;;40.67;18.11;100742.41;108267;1251;63508;-70
2023/05/19 10:35:59;;;;;;;10.00;4.60;;;;;;;40.79;17.97;100742.66;108178;1251;66161;-70
2023/05/19 10:38:36;;;;;;;9.70;5.00;;;;;;;40.75;17.90;100743.70;108301;1251;60326;-68
2023/05/19 10:41:12;;;;;;;8.00;4.30;;;;;;;41.15;17.90;100740.05;108302;1251;60802;-69
2023/05/19 10:44:17;;;;;;;11.30;5.00;;;;;;;41.36;17.74;100742.92;108378;1251;67211;-70
2023/05/19 10:46:43;;;;;;;10.90;4.80;;;;;;;41.51;17.65;100742.24;108258;1256;62273;-68
2023/05/19 10:49:21;;;;;;;11.50;5.20;;;;;;;41.64;17.46;100743.17;108200;1252;65154;-69
2023/05/19 10:51:49;;;;;;;14.20;5.20;;;;;;;41.39;17.84;100747.02;108258;1251;59175;-71
2023/05/19 10:54:17;;;;;;;9.40;5.20;;;;;;;41.07;17.91;100750.77;108210;1259;60447;-68
2023/05/19 10:56:47;;;;;;;9.90;4.90;;;;;;;40.81;18.15;100753.52;108291;1256;66188;-69
2023/05/19 10:59:33;;;;;;;11.40;5.10;;;;;;;40.62;18.08;100751.40;108294;1251;63684;-69
2023/05/19 11:02:04;;;;;;;14.60;5.10;;;;;;;40.68;18.22;100750.71;108201;1253;65045;-70
2023/05/19 11:04:38;;;;;;;;;;;;;;;40.62;18.29;100752.08;108248;1254;59247;-68
2023/05/19 11:07:08;;;;;;;11.10;4.80;;;;;;;40.38;18.44;100754.09;108253;1256;59126;-70
2023/05/19 11:09:41;;;;;;;6.70;4.40;;;;;;;40.22;18.42;100751.96;108281;1251;67185;-69
2023/05/19 11:12:09;;;;;;;11.10;5.10;;;;;;;40.20;18.74;100749.95;108247;1256;62525;-67
2023/05/19 11:14:36;;;;;;;8.80;5.10;;;;;;;40.39;18.45;100750.77;108176;1251;65922;-69
2023/05/19 11:17:04;;;;;;;9.80;4.50;;;;;;;39.86;19.00;100752.41;108227;1254;60305;-69
2023/05/19 11:19:33;;;;;;;11.50;5.50;;;;;;;39.70;19.19;100753.55;108093;1251;60276;-67
2023/05/19 11:22:07;;;;;;;11.40;5.10;;;;;;;39.66;19.26;100752.21;108264;1251;67293;-68
2023/05/19 11:24:52;;;;;;;7.30;4.80;;;;;;;39.82;19.14;100748.78;108228;1251;63415;-69
2023/05/19 11:27:26;;;;;;;11.90;4.90;;;;;;;40.13;18.95;100752.77;108053;1254;66124;-68